sensor_id;sensor_type;location;lat;lon;timestamp;P1;durP1;ratioP1;P2;durP2;ratioP2
18695;SDS011;22617;43.690;27.956;2023-01-28T00:00:47;5.57;;;2.67;;
18695;SDS011;22617;43.690;27.956;2023-01-28T00:06:00;6.90;;;3.47;;
18695;SDS011;22617;43.690;27.956;2023-01-28T00:11:04;8.53;;;4.00;;
18695;SDS011;22617;43.690;27.956;2023-01-28T00:16:09;9.37;;;4.20;;
18695;SDS011;22617;43.690;27.956;2023-01-28T00:21:15;10.67;;;4.30;;
18695;SDS011;22617;43.690;27.956;2023-01-28T00:26:19;9.50;;;4.43;;
18695;SDS011;22617;43.690;27.956;2023-01-28T00:31:24;9.33;;;4.30;;
18695;SDS011;22617;43.690;27.956;2023-01-28T00:36:30;11.20;;;4.83;;
18695;SDS011;22617;43.690;27.956;2023-01-28T00:41:34;12.50;;;4.90;;
18695;SDS011;22617;43.690;27.956;2023-01-28T00:46:38;8.13;;;3.63;;
18695;SDS011;22617;43.690;27.956;2023-01-28T00:51:44;6.93;;;3.40;;
18695;SDS011;22617;43.690;27.956;2023-01-28T00:56:49;6.87;;;3.73;;
18695;SDS011;22617;43.690;27.956;2023-01-28T01:01:54;7.60;;;3.53;;
18695;SDS011;22617;43.690;27.956;2023-01-28T01:07:14;8.50;;;3.90;;
18695;SDS011;22617;43.690;27.956;2023-01-28T01:12:20;12.23;;;4.77;;
18695;SDS011;22617;43.690;27.956;2023-01-28T01:17:23;11.77;;;5.07;;
18695;SDS011;22617;43.690;27.956;2023-01-28T01:22:31;16.60;;;5.13;;
18695;SDS011;22617;43.690;27.956;2023-01-28T01:27:36;13.67;;;5.43;;
18695;SDS011;22617;43.690;27.956;2023-01-28T01:32:40;17.37;;;6.23;;
18695;SDS011;22617;43.690;27.956;2023-01-28T01:37:45;15.17;;;5.63;;
18695;SDS011;22617;43.690;27.956;2023-01-28T01:42:49;14.57;;;6.00;;
18695;SDS011;22617;43.690;27.956;2023-01-28T01:47:54;15.93;;;6.57;;
18695;SDS011;22617;43.690;27.956;2023-01-28T01:53:03;16.57;;;5.93;;
18695;SDS011;22617;43.690;27.956;2023-01-28T01:58:12;16.77;;;5.83;;
18695;SDS011;22617;43.690;27.956;2023-01-28T02:03:18;13.77;;;5.80;;
18695;SDS011;22617;43.690;27.956;2023-01-28T02:08:31;12.47;;;5.63;;
18695;SDS011;22617;43.690;27.956;2023-01-28T02:13:35;14.57;;;5.23;;
18695;SDS011;22617;43.690;27.956;2023-01-28T02:18:42;13.93;;;5.47;;
18695;SDS011;22617;43.690;27.956;2023-01-28T02:23:52;12.60;;;4.97;;
18695;SDS011;22617;43.690;27.956;2023-01-28T02:29:02;12.07;;;5.27;;
18695;SDS011;22617;43.690;27.956;2023-01-28T02:34:14;13.00;;;4.90;;
18695;SDS011;22617;43.690;27.956;2023-01-28T02:39:22;11.00;;;4.53;;
18695;SDS011;22617;43.690;27.956;2023-01-28T02:44:30;12.60;;;4.60;;
18695;SDS011;22617;43.690;27.956;2023-01-28T02:49:36;10.60;;;4.77;;
18695;SDS011;22617;43.690;27.956;2023-01-28T02:54:45;13.07;;;4.70;;
18695;SDS011;22617;43.690;27.956;2023-01-28T03:00:03;9.33;;;4.50;;
18695;SDS011;22617;43.690;27.956;2023-01-28T03:05:15;10.43;;;4.63;;
18695;SDS011;22617;43.690;27.956;2023-01-28T03:10:23;11.67;;;4.40;;
18695;SDS011;22617;43.690;27.956;2023-01-28T03:15:32;12.20;;;4.70;;
18695;SDS011;22617;43.690;27.956;2023-01-28T03:21:00;10.63;;;4.30;;
18695;SDS011;22617;43.690;27.956;2023-01-28T03:26:24;11.37;;;4.67;;
18695;SDS011;22617;43.690;27.956;2023-01-28T03:31:51;11.07;;;4.63;;
18695;SDS011;22617;43.690;27.956;2023-01-28T03:37:15;11.57;;;5.13;;
18695;SDS011;22617;43.690;27.956;2023-01-28T03:42:23;11.73;;;5.00;;
18695;SDS011;22617;43.690;27.956;2023-01-28T03:47:40;13.03;;;4.87;;
18695;SDS011;22617;43.690;27.956;2023-01-28T03:52:45;10.53;;;5.40;;
18695;SDS011;22617;43.690;27.956;2023-01-28T03:57:58;13.90;;;5.70;;
18695;SDS011;22617;43.690;27.956;2023-01-28T04:03:04;14.30;;;6.13;;
18695;SDS011;22617;43.690;27.956;2023-01-28T04:08:20;17.63;;;7.40;;
18695;SDS011;22617;43.690;27.956;2023-01-28T04:13:53;18.37;;;7.00;;
18695;SDS011;22617;43.690;27.956;2023-01-28T04:19:00;15.47;;;6.60;;
18695;SDS011;22617;43.690;27.956;2023-01-28T04:24:05;20.33;;;7.73;;
18695;SDS011;22617;43.690;27.956;2023-01-28T04:29:09;16.20;;;7.50;;
18695;SDS011;22617;43.690;27.956;2023-01-28T04:34:14;18.47;;;7.77;;
18695;SDS011;22617;43.690;27.956;2023-01-28T04:39:39;18.77;;;7.50;;
18695;SDS011;22617;43.690;27.956;2023-01-28T04:44:51;15.93;;;7.43;;
18695;SDS011;22617;43.690;27.956;2023-01-28T04:50:15;17.97;;;7.27;;
18695;SDS011;22617;43.690;27.956;2023-01-28T04:55:34;14.30;;;6.27;;
18695;SDS011;22617;43.690;27.956;2023-01-28T05:00:39;12.97;;;6.10;;
18695;SDS011;22617;43.690;27.956;2023-01-28T05:05:44;17.33;;;7.40;;
18695;SDS011;22617;43.690;27.956;2023-01-28T05:11:08;16.83;;;7.00;;
18695;SDS011;22617;43.690;27.956;2023-01-28T05:16:12;15.97;;;6.80;;
18695;SDS011;22617;43.690;27.956;2023-01-28T05:21:17;18.37;;;7.97;;
18695;SDS011;22617;43.690;27.956;2023-01-28T05:26:27;17.57;;;7.27;;
18695;SDS011;22617;43.690;27.956;2023-01-28T05:31:31;20.37;;;8.03;;
18695;SDS011;22617;43.690;27.956;2023-01-28T05:36:36;16.27;;;7.70;;
18695;SDS011;22617;43.690;27.956;2023-01-28T05:41:57;15.47;;;7.20;;
18695;SDS011;22617;43.690;27.956;2023-01-28T05:47:02;16.93;;;7.93;;
18695;SDS011;22617;43.690;27.956;2023-01-28T05:52:39;19.90;;;8.80;;
18695;SDS011;22617;43.690;27.956;2023-01-28T05:57:52;17.43;;;8.40;;
18695;SDS011;22617;43.690;27.956;2023-01-28T06:02:59;20.30;;;9.17;;
18695;SDS011;22617;43.690;27.956;2023-01-28T06:08:05;17.77;;;8.17;;
18695;SDS011;22617;43.690;27.956;2023-01-28T06:13:10;18.13;;;8.20;;
18695;SDS011;22617;43.690;27.956;2023-01-28T06:18:17;20.63;;;8.87;;
18695;SDS011;22617;43.690;27.956;2023-01-28T06:23:24;18.87;;;8.90;;
18695;SDS011;22617;43.690;27.956;2023-01-28T06:28:28;17.87;;;8.47;;
18695;SDS011;22617;43.690;27.956;2023-01-28T06:33:32;21.17;;;8.80;;
18695;SDS011;22617;43.690;27.956;2023-01-28T06:38:38;19.27;;;9.27;;
18695;SDS011;22617;43.690;27.956;2023-01-28T06:43:42;19.93;;;8.30;;
18695;SDS011;22617;43.690;27.956;2023-01-28T06:48:45;22.30;;;8.13;;
18695;SDS011;22617;43.690;27.956;2023-01-28T06:53:51;21.50;;;9.37;;
18695;SDS011;22617;43.690;27.956;2023-01-28T06:58:54;19.27;;;9.00;;
18695;SDS011;22617;43.690;27.956;2023-01-28T07:03:58;19.93;;;8.90;;
18695;SDS011;22617;43.690;27.956;2023-01-28T07:09:03;16.23;;;8.10;;
18695;SDS011;22617;43.690;27.956;2023-01-28T07:14:07;19.97;;;8.33;;
18695;SDS011;22617;43.690;27.956;2023-01-28T07:19:12;20.30;;;8.40;;
18695;SDS011;22617;43.690;27.956;2023-01-28T07:24:17;18.00;;;7.77;;
18695;SDS011;22617;43.690;27.956;2023-01-28T07:29:21;19.00;;;8.97;;
18695;SDS011;22617;43.690;27.956;2023-01-28T07:34:24;21.70;;;10.33;;
18695;SDS011;22617;43.690;27.956;2023-01-28T07:39:29;18.40;;;8.57;;
18695;SDS011;22617;43.690;27.956;2023-01-28T07:44:33;18.63;;;8.73;;
18695;SDS011;22617;43.690;27.956;2023-01-28T07:49:38;17.03;;;7.53;;
18695;SDS011;22617;43.690;27.956;2023-01-28T07:54:43;21.20;;;9.17;;
18695;SDS011;22617;43.690;27.956;2023-01-28T07:59:47;17.10;;;8.20;;
18695;SDS011;22617;43.690;27.956;2023-01-28T08:04:51;20.27;;;8.80;;
18695;SDS011;22617;43.690;27.956;2023-01-28T08:09:56;18.33;;;8.73;;
18695;SDS011;22617;43.690;27.956;2023-01-28T08:15:00;18.37;;;8.30;;
18695;SDS011;22617;43.690;27.956;2023-01-28T08:20:06;19.33;;;9.10;;
18695;SDS011;22617;43.690;27.956;2023-01-28T08:25:13;19.47;;;8.97;;
18695;SDS011;22617;43.690;27.956;2023-01-28T08:30:17;18.60;;;8.60;;
18695;SDS011;22617;43.690;27.956;2023-01-28T08:35:21;21.60;;;8.97;;
18695;SDS011;22617;43.690;27.956;2023-01-28T08:40:26;21.40;;;8.73;;
18695;SDS011;22617;43.690;27.956;2023-01-28T08:45:30;18.87;;;9.63;;
18695;SDS011;22617;43.690;27.956;2023-01-28T08:50:34;22.50;;;9.50;;
18695;SDS011;22617;43.690;27.956;2023-01-28T08:55:41;26.93;;;11.97;;
18695;SDS011;22617;43.690;27.956;2023-01-28T09:00:46;22.87;;;10.50;;
18695;SDS011;22617;43.690;27.956;2023-01-28T09:05:50;23.67;;;9.93;;
18695;SDS011;22617;43.690;27.956;2023-01-28T09:10:56;28.10;;;11.53;;
18695;SDS011;22617;43.690;27.956;2023-01-28T09:16:00;22.03;;;10.17;;
18695;SDS011;22617;43.690;27.956;2023-01-28T09:21:08;26.43;;;11.40;;
18695;SDS011;22617;43.690;27.956;2023-01-28T09:26:13;26.73;;;11.47;;
18695;SDS011;22617;43.690;27.956;2023-01-28T09:31:17;27.50;;;12.17;;
18695;SDS011;22617;43.690;27.956;2023-01-28T09:36:21;27.23;;;11.80;;
18695;SDS011;22617;43.690;27.956;2023-01-28T09:41:27;27.70;;;11.00;;
18695;SDS011;22617;43.690;27.956;2023-01-28T09:46:35;24.63;;;11.17;;
18695;SDS011;22617;43.690;27.956;2023-01-28T09:51:41;30.83;;;12.30;;
18695;SDS011;22617;43.690;27.956;2023-01-28T09:56:52;26.53;;;12.00;;
18695;SDS011;22617;43.690;27.956;2023-01-28T10:02:03;29.13;;;12.37;;
18695;SDS011;22617;43.690;27.956;2023-01-28T10:07:29;24.83;;;11.07;;
18695;SDS011;22617;43.690;27.956;2023-01-28T10:12:53;30.07;;;12.10;;
18695;SDS011;22617;43.690;27.956;2023-01-28T10:18:14;28.60;;;11.63;;
18695;SDS011;22617;43.690;27.956;2023-01-28T10:23:19;27.97;;;12.13;;
18695;SDS011;22617;43.690;27.956;2023-01-28T10:28:28;33.27;;;12.87;;
18695;SDS011;22617;43.690;27.956;2023-01-28T10:33:34;28.70;;;11.50;;
18695;SDS011;22617;43.690;27.956;2023-01-28T10:38:40;36.27;;;13.63;;
18695;SDS011;22617;43.690;27.956;2023-01-28T10:43:46;34.43;;;12.03;;
18695;SDS011;22617;43.690;27.956;2023-01-28T10:48:53;33.57;;;12.93;;
18695;SDS011;22617;43.690;27.956;2023-01-28T10:54:00;34.33;;;13.43;;
18695;SDS011;22617;43.690;27.956;2023-01-28T10:59:16;35.37;;;13.03;;
18695;SDS011;22617;43.690;27.956;2023-01-28T11:04:24;40.00;;;14.53;;
18695;SDS011;22617;43.690;27.956;2023-01-28T11:09:34;37.87;;;15.27;;
18695;SDS011;22617;43.690;27.956;2023-01-28T11:14:48;41.40;;;16.00;;
18695;SDS011;22617;43.690;27.956;2023-01-28T11:19:53;42.20;;;15.10;;
18695;SDS011;22617;43.690;27.956;2023-01-28T11:25:00;44.27;;;15.73;;
18695;SDS011;22617;43.690;27.956;2023-01-28T11:30:18;43.83;;;16.10;;
18695;SDS011;22617;43.690;27.956;2023-01-28T11:35:25;45.00;;;15.70;;
18695;SDS011;22617;43.690;27.956;2023-01-28T11:40:32;41.83;;;16.23;;
18695;SDS011;22617;43.690;27.956;2023-01-28T11:45:48;38.87;;;16.07;;
18695;SDS011;22617;43.690;27.956;2023-01-28T11:51:02;39.37;;;15.20;;
18695;SDS011;22617;43.690;27.956;2023-01-28T11:56:12;40.20;;;15.43;;
18695;SDS011;22617;43.690;27.956;2023-01-28T12:01:29;43.67;;;16.37;;
18695;SDS011;22617;43.690;27.956;2023-01-28T12:06:46;39.60;;;15.27;;
18695;SDS011;22617;43.690;27.956;2023-01-28T12:12:03;39.07;;;15.43;;
18695;SDS011;22617;43.690;27.956;2023-01-28T12:17:18;40.70;;;15.37;;
18695;SDS011;22617;43.690;27.956;2023-01-28T12:28:11;33.10;;;13.47;;
18695;SDS011;22617;43.690;27.956;2023-01-28T12:33:32;39.50;;;16.07;;
18695;SDS011;22617;43.690;27.956;2023-01-28T12:38:48;33.50;;;14.33;;
18695;SDS011;22617;43.690;27.956;2023-01-28T12:44:01;35.47;;;14.27;;
18695;SDS011;22617;43.690;27.956;2023-01-28T12:49:11;39.50;;;15.73;;
18695;SDS011;22617;43.690;27.956;2023-01-28T12:54:21;36.93;;;14.50;;
18695;SDS011;22617;43.690;27.956;2023-01-28T12:59:31;40.20;;;14.80;;
18695;SDS011;22617;43.690;27.956;2023-01-28T13:04:44;40.37;;;15.33;;
18695;SDS011;22617;43.690;27.956;2023-01-28T13:09:53;41.80;;;16.40;;
18695;SDS011;22617;43.690;27.956;2023-01-28T13:15:09;44.10;;;16.50;;
18695;SDS011;22617;43.690;27.956;2023-01-28T13:20:28;37.73;;;14.73;;
18695;SDS011;22617;43.690;27.956;2023-01-28T13:25:46;45.03;;;16.40;;
18695;SDS011;22617;43.690;27.956;2023-01-28T13:30:51;38.27;;;14.40;;
18695;SDS011;22617;43.690;27.956;2023-01-28T13:36:09;40.97;;;14.83;;
18695;SDS011;22617;43.690;27.956;2023-01-28T13:41:36;46.47;;;15.80;;
18695;SDS011;22617;43.690;27.956;2023-01-28T13:46:41;45.33;;;16.10;;
18695;SDS011;22617;43.690;27.956;2023-01-28T13:51:49;44.13;;;15.27;;
18695;SDS011;22617;43.690;27.956;2023-01-28T13:57:08;41.13;;;15.20;;
18695;SDS011;22617;43.690;27.956;2023-01-28T14:02:45;40.87;;;14.20;;
18695;SDS011;22617;43.690;27.956;2023-01-28T14:08:21;37.07;;;12.93;;
18695;SDS011;22617;43.690;27.956;2023-01-28T14:13:56;38.97;;;14.90;;
18695;SDS011;22617;43.690;27.956;2023-01-28T14:19:24;44.73;;;15.83;;
18695;SDS011;22617;43.690;27.956;2023-01-28T14:24:35;38.47;;;14.30;;
18695;SDS011;22617;43.690;27.956;2023-01-28T14:29:45;36.33;;;13.87;;
18695;SDS011;22617;43.690;27.956;2023-01-28T14:34:57;37.57;;;12.93;;
18695;SDS011;22617;43.690;27.956;2023-01-28T14:40:06;38.37;;;14.10;;
18695;SDS011;22617;43.690;27.956;2023-01-28T14:45:20;44.47;;;15.07;;
18695;SDS011;22617;43.690;27.956;2023-01-28T14:50:36;42.57;;;14.50;;
18695;SDS011;22617;43.690;27.956;2023-01-28T14:55:57;35.03;;;12.90;;
18695;SDS011;22617;43.690;27.956;2023-01-28T15:01:21;37.07;;;13.73;;
18695;SDS011;22617;43.690;27.956;2023-01-28T15:06:29;45.77;;;13.63;;
18695;SDS011;22617;43.690;27.956;2023-01-28T15:11:38;43.97;;;13.60;;
18695;SDS011;22617;43.690;27.956;2023-01-28T15:16:46;40.60;;;13.57;;
18695;SDS011;22617;43.690;27.956;2023-01-28T15:21:53;36.50;;;13.10;;
18695;SDS011;22617;43.690;27.956;2023-01-28T15:26:59;40.80;;;13.97;;
18695;SDS011;22617;43.690;27.956;2023-01-28T15:32:05;37.63;;;13.97;;
18695;SDS011;22617;43.690;27.956;2023-01-28T15:37:09;38.03;;;13.40;;
18695;SDS011;22617;43.690;27.956;2023-01-28T15:42:18;37.83;;;14.53;;
18695;SDS011;22617;43.690;27.956;2023-01-28T15:47:24;38.70;;;12.23;;
18695;SDS011;22617;43.690;27.956;2023-01-28T15:52:32;39.10;;;13.50;;
18695;SDS011;22617;43.690;27.956;2023-01-28T15:57:40;36.67;;;12.87;;
18695;SDS011;22617;43.690;27.956;2023-01-28T16:02:45;40.13;;;14.87;;
18695;SDS011;22617;43.690;27.956;2023-01-28T16:07:50;43.23;;;14.90;;
18695;SDS011;22617;43.690;27.956;2023-01-28T16:13:01;51.90;;;15.10;;
18695;SDS011;22617;43.690;27.956;2023-01-28T16:18:15;47.43;;;15.13;;
18695;SDS011;22617;43.690;27.956;2023-01-28T16:23:31;54.70;;;17.77;;
18695;SDS011;22617;43.690;27.956;2023-01-28T16:28:42;54.80;;;16.97;;
18695;SDS011;22617;43.690;27.956;2023-01-28T16:33:46;52.40;;;16.10;;
18695;SDS011;22617;43.690;27.956;2023-01-28T16:38:50;55.73;;;16.67;;
18695;SDS011;22617;43.690;27.956;2023-01-28T16:43:56;58.47;;;16.60;;
18695;SDS011;22617;43.690;27.956;2023-01-28T16:49:01;56.77;;;18.57;;
18695;SDS011;22617;43.690;27.956;2023-01-28T16:54:06;57.63;;;18.53;;
18695;SDS011;22617;43.690;27.956;2023-01-28T16:59:14;63.57;;;17.50;;
18695;SDS011;22617;43.690;27.956;2023-01-28T17:04:21;54.93;;;17.47;;
18695;SDS011;22617;43.690;27.956;2023-01-28T17:09:25;53.13;;;16.23;;
18695;SDS011;22617;43.690;27.956;2023-01-28T17:19:40;58.70;;;18.47;;
18695;SDS011;22617;43.690;27.956;2023-01-28T17:24:44;63.07;;;17.70;;
18695;SDS011;22617;43.690;27.956;2023-01-28T17:29:50;60.70;;;18.63;;
18695;SDS011;22617;43.690;27.956;2023-01-28T17:34:54;65.70;;;19.57;;
18695;SDS011;22617;43.690;27.956;2023-01-28T17:39:58;63.90;;;18.70;;
18695;SDS011;22617;43.690;27.956;2023-01-28T17:45:05;61.97;;;18.00;;
18695;SDS011;22617;43.690;27.956;2023-01-28T17:50:10;63.27;;;19.77;;
18695;SDS011;22617;43.690;27.956;2023-01-28T17:55:14;64.37;;;19.20;;
18695;SDS011;22617;43.690;27.956;2023-01-28T18:00:21;67.10;;;19.57;;
18695;SDS011;22617;43.690;27.956;2023-01-28T18:05:27;67.37;;;20.07;;
18695;SDS011;22617;43.690;27.956;2023-01-28T18:10:33;56.83;;;18.60;;
18695;SDS011;22617;43.690;27.956;2023-01-28T18:15:39;63.60;;;20.13;;
18695;SDS011;22617;43.690;27.956;2023-01-28T18:20:43;60.47;;;19.03;;
18695;SDS011;22617;43.690;27.956;2023-01-28T18:25:48;54.60;;;17.90;;
18695;SDS011;22617;43.690;27.956;2023-01-28T18:30:53;53.00;;;18.77;;
18695;SDS011;22617;43.690;27.956;2023-01-28T18:35:58;51.93;;;17.20;;
18695;SDS011;22617;43.690;27.956;2023-01-28T18:41:02;49.63;;;17.20;;
18695;SDS011;22617;43.690;27.956;2023-01-28T18:46:12;49.57;;;17.03;;
18695;SDS011;22617;43.690;27.956;2023-01-28T18:51:19;48.83;;;16.83;;
18695;SDS011;22617;43.690;27.956;2023-01-28T18:56:32;48.43;;;16.97;;
18695;SDS011;22617;43.690;27.956;2023-01-28T19:01:39;47.43;;;16.17;;
18695;SDS011;22617;43.690;27.956;2023-01-28T19:06:44;48.20;;;17.50;;
18695;SDS011;22617;43.690;27.956;2023-01-28T19:11:51;49.07;;;16.50;;
18695;SDS011;22617;43.690;27.956;2023-01-28T19:16:56;50.30;;;16.73;;
18695;SDS011;22617;43.690;27.956;2023-01-28T19:22:01;46.43;;;16.13;;
18695;SDS011;22617;43.690;27.956;2023-01-28T19:27:05;41.60;;;14.63;;
18695;SDS011;22617;43.690;27.956;2023-01-28T19:32:11;39.77;;;14.97;;
18695;SDS011;22617;43.690;27.956;2023-01-28T19:37:15;36.83;;;13.53;;
18695;SDS011;22617;43.690;27.956;2023-01-28T19:42:18;36.67;;;14.13;;
18695;SDS011;22617;43.690;27.956;2023-01-28T19:47:24;40.20;;;13.67;;
18695;SDS011;22617;43.690;27.956;2023-01-28T19:52:29;40.13;;;14.50;;
18695;SDS011;22617;43.690;27.956;2023-01-28T19:57:34;43.07;;;15.60;;
18695;SDS011;22617;43.690;27.956;2023-01-28T20:02:41;38.80;;;14.40;;
18695;SDS011;22617;43.690;27.956;2023-01-28T20:07:45;43.37;;;15.10;;
18695;SDS011;22617;43.690;27.956;2023-01-28T20:12:50;37.07;;;14.23;;
18695;SDS011;22617;43.690;27.956;2023-01-28T20:36:09;42.80;;;14.53;;
18695;SDS011;22617;43.690;27.956;2023-01-28T20:41:16;35.60;;;13.97;;
18695;SDS011;22617;43.690;27.956;2023-01-28T20:46:22;39.70;;;14.83;;
18695;SDS011;22617;43.690;27.956;2023-01-28T20:51:30;36.13;;;13.53;;
18695;SDS011;22617;43.690;27.956;2023-01-28T20:56:36;37.93;;;13.57;;
18695;SDS011;22617;43.690;27.956;2023-01-28T21:01:40;37.33;;;13.47;;
18695;SDS011;22617;43.690;27.956;2023-01-28T21:06:47;38.13;;;14.13;;
18695;SDS011;22617;43.690;27.956;2023-01-28T21:11:51;36.50;;;13.33;;
18695;SDS011;22617;43.690;27.956;2023-01-28T21:16:54;34.43;;;13.27;;
18695;SDS011;22617;43.690;27.956;2023-01-28T21:22:00;34.23;;;13.17;;
18695;SDS011;22617;43.690;27.956;2023-01-28T21:27:04;34.73;;;12.90;;
18695;SDS011;22617;43.690;27.956;2023-01-28T21:32:07;34.63;;;12.67;;
18695;SDS011;22617;43.690;27.956;2023-01-28T21:37:13;35.87;;;13.27;;
18695;SDS011;22617;43.690;27.956;2023-01-28T21:42:17;33.13;;;13.13;;
18695;SDS011;22617;43.690;27.956;2023-01-28T21:47:21;36.67;;;13.57;;
18695;SDS011;22617;43.690;27.956;2023-01-28T21:52:26;33.03;;;12.47;;
18695;SDS011;22617;43.690;27.956;2023-01-28T21:57:29;34.27;;;13.33;;
18695;SDS011;22617;43.690;27.956;2023-01-28T22:02:33;33.40;;;13.03;;
18695;SDS011;22617;43.690;27.956;2023-01-28T22:07:39;35.53;;;13.53;;
18695;SDS011;22617;43.690;27.956;2023-01-28T22:12:43;33.80;;;12.97;;
18695;SDS011;22617;43.690;27.956;2023-01-28T22:17:47;29.87;;;12.10;;
18695;SDS011;22617;43.690;27.956;2023-01-28T22:22:52;34.03;;;12.97;;
18695;SDS011;22617;43.690;27.956;2023-01-28T22:27:56;28.43;;;11.90;;
18695;SDS011;22617;43.690;27.956;2023-01-28T22:32:59;32.47;;;12.00;;
18695;SDS011;22617;43.690;27.956;2023-01-28T22:38:04;33.37;;;12.73;;
18695;SDS011;22617;43.690;27.956;2023-01-28T22:43:08;29.17;;;11.63;;
18695;SDS011;22617;43.690;27.956;2023-01-28T22:48:12;30.87;;;11.83;;
18695;SDS011;22617;43.690;27.956;2023-01-28T22:53:17;29.93;;;12.47;;
18695;SDS011;22617;43.690;27.956;2023-01-28T22:58:21;29.77;;;11.40;;
18695;SDS011;22617;43.690;27.956;2023-01-28T23:03:25;25.87;;;10.83;;
18695;SDS011;22617;43.690;27.956;2023-01-28T23:08:30;28.97;;;11.23;;
18695;SDS011;22617;43.690;27.956;2023-01-28T23:13:34;27.43;;;10.53;;
18695;SDS011;22617;43.690;27.956;2023-01-28T23:18:52;26.40;;;10.57;;
18695;SDS011;22617;43.690;27.956;2023-01-28T23:24:15;26.70;;;11.37;;
18695;SDS011;22617;43.690;27.956;2023-01-28T23:29:23;26.37;;;10.83;;
18695;SDS011;22617;43.690;27.956;2023-01-28T23:34:30;25.60;;;10.13;;
18695;SDS011;22617;43.690;27.956;2023-01-28T23:39:38;24.73;;;10.00;;
18695;SDS011;22617;43.690;27.956;2023-01-28T23:44:42;24.57;;;9.47;;
18695;SDS011;22617;43.690;27.956;2023-01-28T23:49:46;26.00;;;9.67;;
18695;SDS011;22617;43.690;27.956;2023-01-28T23:54:51;22.53;;;9.03;;
18695;SDS011;22617;43.690;27.956;2023-01-28T23:59:55;20.63;;;8.30;;
